sensor_id;sensor_type;location;lat;lon;timestamp;temperature;humidity
19586;DHT22;9939;49.246;9.106;2023-05-21T00:01:45;16.70;99.90
19586;DHT22;9939;49.246;9.106;2023-05-21T00:04:14;16.60;99.90
19586;DHT22;9939;49.246;9.106;2023-05-21T00:06:41;16.70;99.90
19586;DHT22;9939;49.246;9.106;2023-05-21T00:09:08;16.70;99.90
19586;DHT22;9939;49.246;9.106;2023-05-21T00:11:36;16.60;99.90
19586;DHT22;9939;49.246;9.106;2023-05-21T00:14:03;16.60;99.90
19586;DHT22;9939;49.246;9.106;2023-05-21T00:16:30;16.50;99.90
19586;DHT22;9939;49.246;9.106;2023-05-21T00:18:57;16.40;99.90
19586;DHT22;9939;49.246;9.106;2023-05-21T00:21:24;16.50;99.90
19586;DHT22;9939;49.246;9.106;2023-05-21T00:23:52;16.40;99.90
19586;DHT22;9939;49.246;9.106;2023-05-21T00:26:22;16.40;99.90
19586;DHT22;9939;49.246;9.106;2023-05-21T00:28:55;16.40;99.90
19586;DHT22;9939;49.246;9.106;2023-05-21T00:31:23;16.40;99.90
19586;DHT22;9939;49.246;9.106;2023-05-21T00:33:50;16.40;99.90
19586;DHT22;9939;49.246;9.106;2023-05-21T00:36:17;16.40;99.90
19586;DHT22;9939;49.246;9.106;2023-05-21T00:38:44;16.40;99.90
19586;DHT22;9939;49.246;9.106;2023-05-21T00:41:11;16.30;99.90
19586;DHT22;9939;49.246;9.106;2023-05-21T00:43:39;16.40;99.90
19586;DHT22;9939;49.246;9.106;2023-05-21T00:46:07;16.30;99.90
19586;DHT22;9939;49.246;9.106;2023-05-21T00:48:38;16.30;99.90
19586;DHT22;9939;49.246;9.106;2023-05-21T00:51:05;16.40;99.90
19586;DHT22;9939;49.246;9.106;2023-05-21T00:53:32;16.50;99.90
19586;DHT22;9939;49.246;9.106;2023-05-21T00:56:01;16.30;99.90
19586;DHT22;9939;49.246;9.106;2023-05-21T00:58:28;16.30;99.90
19586;DHT22;9939;49.246;9.106;2023-05-21T01:00:56;16.40;99.90
19586;DHT22;9939;49.246;9.106;2023-05-21T01:03:24;16.30;99.90
19586;DHT22;9939;49.246;9.106;2023-05-21T01:05:52;16.10;99.90
19586;DHT22;9939;49.246;9.106;2023-05-21T01:08:19;16.10;99.90
19586;DHT22;9939;49.246;9.106;2023-05-21T01:10:47;16.00;99.90
19586;DHT22;9939;49.246;9.106;2023-05-21T01:13:14;16.00;99.90
19586;DHT22;9939;49.246;9.106;2023-05-21T01:15:43;15.90;99.90
19586;DHT22;9939;49.246;9.106;2023-05-21T01:18:10;15.90;99.90
19586;DHT22;9939;49.246;9.106;2023-05-21T01:20:37;15.90;99.90
19586;DHT22;9939;49.246;9.106;2023-05-21T01:23:05;15.90;99.90
19586;DHT22;9939;49.246;9.106;2023-05-21T01:25:32;15.80;99.90
19586;DHT22;9939;49.246;9.106;2023-05-21T01:28:00;15.80;99.90
19586;DHT22;9939;49.246;9.106;2023-05-21T01:30:28;15.80;99.90
19586;DHT22;9939;49.246;9.106;2023-05-21T01:33:03;15.80;99.90
19586;DHT22;9939;49.246;9.106;2023-05-21T01:38:08;15.70;99.90
19586;DHT22;9939;49.246;9.106;2023-05-21T01:40:44;15.70;99.90
19586;DHT22;9939;49.246;9.106;2023-05-21T01:43:13;15.70;99.90
19586;DHT22;9939;49.246;9.106;2023-05-21T01:45:41;15.70;99.90
19586;DHT22;9939;49.246;9.106;2023-05-21T01:48:09;15.70;99.90
19586;DHT22;9939;49.246;9.106;2023-05-21T01:50:38;15.70;99.90
19586;DHT22;9939;49.246;9.106;2023-05-21T01:53:06;15.70;99.90
19586;DHT22;9939;49.246;9.106;2023-05-21T01:55:33;15.70;99.90
19586;DHT22;9939;49.246;9.106;2023-05-21T01:58:01;15.80;99.90
19586;DHT22;9939;49.246;9.106;2023-05-21T02:00:29;15.80;99.90
19586;DHT22;9939;49.246;9.106;2023-05-21T02:02:58;15.80;99.90
19586;DHT22;9939;49.246;9.106;2023-05-21T02:05:25;15.70;99.90
19586;DHT22;9939;49.246;9.106;2023-05-21T02:07:52;15.70;99.90
19586;DHT22;9939;49.246;9.106;2023-05-21T02:10:21;15.70;99.90
19586;DHT22;9939;49.246;9.106;2023-05-21T02:12:48;15.70;99.90
19586;DHT22;9939;49.246;9.106;2023-05-21T02:15:15;15.70;99.90
19586;DHT22;9939;49.246;9.106;2023-05-21T02:17:44;15.70;99.90
19586;DHT22;9939;49.246;9.106;2023-05-21T02:20:12;15.70;99.90
19586;DHT22;9939;49.246;9.106;2023-05-21T02:22:40;15.70;99.90
19586;DHT22;9939;49.246;9.106;2023-05-21T02:25:07;15.60;99.90
19586;DHT22;9939;49.246;9.106;2023-05-21T02:27:35;15.60;99.90
19586;DHT22;9939;49.246;9.106;2023-05-21T02:30:04;15.60;99.90
19586;DHT22;9939;49.246;9.106;2023-05-21T02:32:31;15.60;99.90
19586;DHT22;9939;49.246;9.106;2023-05-21T02:35:00;15.70;99.90
19586;DHT22;9939;49.246;9.106;2023-05-21T02:37:27;15.70;99.90
19586;DHT22;9939;49.246;9.106;2023-05-21T02:39:54;15.70;99.90
19586;DHT22;9939;49.246;9.106;2023-05-21T02:42:22;15.70;99.90
19586;DHT22;9939;49.246;9.106;2023-05-21T02:44:49;15.60;99.90
19586;DHT22;9939;49.246;9.106;2023-05-21T02:47:18;15.60;99.90
19586;DHT22;9939;49.246;9.106;2023-05-21T02:49:48;15.70;99.90
19586;DHT22;9939;49.246;9.106;2023-05-21T02:52:15;15.60;99.90
19586;DHT22;9939;49.246;9.106;2023-05-21T02:54:44;15.60;99.90
19586;DHT22;9939;49.246;9.106;2023-05-21T02:57:11;15.60;99.90
19586;DHT22;9939;49.246;9.106;2023-05-21T02:59:39;15.60;99.90
19586;DHT22;9939;49.246;9.106;2023-05-21T03:02:06;15.70;99.90
19586;DHT22;9939;49.246;9.106;2023-05-21T03:04:33;15.60;99.90
19586;DHT22;9939;49.246;9.106;2023-05-21T03:07:04;15.60;99.90
19586;DHT22;9939;49.246;9.106;2023-05-21T03:09:31;15.60;99.90
19586;DHT22;9939;49.246;9.106;2023-05-21T03:11:58;15.60;99.90
19586;DHT22;9939;49.246;9.106;2023-05-21T03:14:26;15.70;99.90
19586;DHT22;9939;49.246;9.106;2023-05-21T03:16:54;15.70;99.90
19586;DHT22;9939;49.246;9.106;2023-05-21T03:19:21;15.60;99.90
19586;DHT22;9939;49.246;9.106;2023-05-21T03:21:50;15.70;99.90
19586;DHT22;9939;49.246;9.106;2023-05-21T03:24:18;15.70;99.90
19586;DHT22;9939;49.246;9.106;2023-05-21T03:26:45;15.70;99.90
19586;DHT22;9939;49.246;9.106;2023-05-21T03:29:14;15.70;99.90
19586;DHT22;9939;49.246;9.106;2023-05-21T03:31:43;15.60;99.90
19586;DHT22;9939;49.246;9.106;2023-05-21T03:34:12;15.60;99.90
19586;DHT22;9939;49.246;9.106;2023-05-21T03:36:39;15.50;99.90
19586;DHT22;9939;49.246;9.106;2023-05-21T03:39:07;15.50;99.90
19586;DHT22;9939;49.246;9.106;2023-05-21T03:41:34;15.60;99.90
19586;DHT22;9939;49.246;9.106;2023-05-21T03:44:08;15.60;99.90
19586;DHT22;9939;49.246;9.106;2023-05-21T03:46:45;15.50;99.90
19586;DHT22;9939;49.246;9.106;2023-05-21T03:49:41;15.60;99.90
19586;DHT22;9939;49.246;9.106;2023-05-21T03:52:09;15.60;99.90
19586;DHT22;9939;49.246;9.106;2023-05-21T03:54:36;15.50;99.90
19586;DHT22;9939;49.246;9.106;2023-05-21T03:57:06;15.60;99.90
19586;DHT22;9939;49.246;9.106;2023-05-21T03:59:33;15.60;99.90
19586;DHT22;9939;49.246;9.106;2023-05-21T04:02:00;15.60;99.90
19586;DHT22;9939;49.246;9.106;2023-05-21T04:04:28;15.50;99.90
19586;DHT22;9939;49.246;9.106;2023-05-21T04:06:55;15.60;99.90
19586;DHT22;9939;49.246;9.106;2023-05-21T04:09:22;15.60;99.90
19586;DHT22;9939;49.246;9.106;2023-05-21T04:11:50;15.60;99.90
19586;DHT22;9939;49.246;9.106;2023-05-21T04:14:17;15.70;99.90
19586;DHT22;9939;49.246;9.106;2023-05-21T04:16:44;15.70;99.90
19586;DHT22;9939;49.246;9.106;2023-05-21T04:19:11;15.70;99.90
19586;DHT22;9939;49.246;9.106;2023-05-21T04:21:39;15.90;99.90
19586;DHT22;9939;49.246;9.106;2023-05-21T04:24:07;16.00;99.90
19586;DHT22;9939;49.246;9.106;2023-05-21T04:26:45;16.10;99.90
19586;DHT22;9939;49.246;9.106;2023-05-21T04:29:14;16.00;99.90
19586;DHT22;9939;49.246;9.106;2023-05-21T04:31:43;16.10;99.90
19586;DHT22;9939;49.246;9.106;2023-05-21T04:34:12;16.20;99.90
19586;DHT22;9939;49.246;9.106;2023-05-21T04:36:39;16.30;99.90
19586;DHT22;9939;49.246;9.106;2023-05-21T04:39:07;16.30;99.90
19586;DHT22;9939;49.246;9.106;2023-05-21T04:41:34;16.30;99.90
19586;DHT22;9939;49.246;9.106;2023-05-21T04:44:03;16.30;99.90
19586;DHT22;9939;49.246;9.106;2023-05-21T04:46:31;16.20;99.90
19586;DHT22;9939;49.246;9.106;2023-05-21T04:49:02;16.10;99.90
19586;DHT22;9939;49.246;9.106;2023-05-21T04:51:29;16.20;99.90
19586;DHT22;9939;49.246;9.106;2023-05-21T04:53:57;16.20;99.90
19586;DHT22;9939;49.246;9.106;2023-05-21T04:56:24;16.30;99.90
19586;DHT22;9939;49.246;9.106;2023-05-21T04:58:55;16.40;99.90
19586;DHT22;9939;49.246;9.106;2023-05-21T05:01:24;16.50;99.90
19586;DHT22;9939;49.246;9.106;2023-05-21T05:03:52;16.40;99.90
19586;DHT22;9939;49.246;9.106;2023-05-21T05:06:20;16.50;99.90
19586;DHT22;9939;49.246;9.106;2023-05-21T05:08:47;16.50;99.90
19586;DHT22;9939;49.246;9.106;2023-05-21T05:11:15;16.70;99.90
19586;DHT22;9939;49.246;9.106;2023-05-21T05:13:42;16.60;99.90
19586;DHT22;9939;49.246;9.106;2023-05-21T05:16:09;16.60;99.90
19586;DHT22;9939;49.246;9.106;2023-05-21T05:18:37;16.70;99.90
19586;DHT22;9939;49.246;9.106;2023-05-21T05:21:04;16.80;99.90
19586;DHT22;9939;49.246;9.106;2023-05-21T05:23:31;16.80;99.90
19586;DHT22;9939;49.246;9.106;2023-05-21T05:25:58;16.70;99.90
19586;DHT22;9939;49.246;9.106;2023-05-21T05:28:26;16.70;99.90
19586;DHT22;9939;49.246;9.106;2023-05-21T05:30:53;16.80;99.90
19586;DHT22;9939;49.246;9.106;2023-05-21T05:33:25;16.90;99.90
19586;DHT22;9939;49.246;9.106;2023-05-21T05:35:52;16.90;99.90
19586;DHT22;9939;49.246;9.106;2023-05-21T05:38:19;17.00;99.90
19586;DHT22;9939;49.246;9.106;2023-05-21T05:40:46;17.00;99.90
19586;DHT22;9939;49.246;9.106;2023-05-21T05:43:13;17.10;99.90
19586;DHT22;9939;49.246;9.106;2023-05-21T05:45:41;17.30;99.90
19586;DHT22;9939;49.246;9.106;2023-05-21T05:48:12;17.30;99.90
19586;DHT22;9939;49.246;9.106;2023-05-21T05:50:40;17.40;99.90
19586;DHT22;9939;49.246;9.106;2023-05-21T05:53:07;17.50;99.90
19586;DHT22;9939;49.246;9.106;2023-05-21T05:55:35;17.60;99.90
19586;DHT22;9939;49.246;9.106;2023-05-21T05:58:02;17.70;99.90
19586;DHT22;9939;49.246;9.106;2023-05-21T06:00:31;17.70;99.90
19586;DHT22;9939;49.246;9.106;2023-05-21T06:02:59;17.90;99.90
19586;DHT22;9939;49.246;9.106;2023-05-21T06:05:27;18.20;99.90
19586;DHT22;9939;49.246;9.106;2023-05-21T06:07:55;18.50;99.90
19586;DHT22;9939;49.246;9.106;2023-05-21T06:10:23;18.60;99.90
19586;DHT22;9939;49.246;9.106;2023-05-21T06:12:51;18.70;99.90
19586;DHT22;9939;49.246;9.106;2023-05-21T06:15:18;18.60;99.90
19586;DHT22;9939;49.246;9.106;2023-05-21T06:17:45;18.60;99.90
19586;DHT22;9939;49.246;9.106;2023-05-21T06:20:14;18.60;99.90
19586;DHT22;9939;49.246;9.106;2023-05-21T06:22:42;18.50;99.90
19586;DHT22;9939;49.246;9.106;2023-05-21T06:25:09;18.50;99.90
19586;DHT22;9939;49.246;9.106;2023-05-21T06:27:37;18.60;99.90
19586;DHT22;9939;49.246;9.106;2023-05-21T06:30:11;18.60;99.90
19586;DHT22;9939;49.246;9.106;2023-05-21T06:32:38;18.70;99.90
19586;DHT22;9939;49.246;9.106;2023-05-21T06:35:05;18.60;99.90
19586;DHT22;9939;49.246;9.106;2023-05-21T06:37:33;18.80;99.90
19586;DHT22;9939;49.246;9.106;2023-05-21T06:40:01;18.70;99.90
19586;DHT22;9939;49.246;9.106;2023-05-21T06:42:29;18.70;99.90
19586;DHT22;9939;49.246;9.106;2023-05-21T06:45:14;18.80;99.90
19586;DHT22;9939;49.246;9.106;2023-05-21T06:47:43;19.00;99.90
19586;DHT22;9939;49.246;9.106;2023-05-21T06:50:10;19.10;99.90
19586;DHT22;9939;49.246;9.106;2023-05-21T06:52:37;19.20;99.90
19586;DHT22;9939;49.246;9.106;2023-05-21T06:55:05;19.20;99.90
19586;DHT22;9939;49.246;9.106;2023-05-21T06:57:52;19.40;99.90
19586;DHT22;9939;49.246;9.106;2023-05-21T07:00:20;19.40;99.90
19586;DHT22;9939;49.246;9.106;2023-05-21T07:02:47;19.80;99.90
19586;DHT22;9939;49.246;9.106;2023-05-21T07:05:14;20.00;99.90
19586;DHT22;9939;49.246;9.106;2023-05-21T07:07:41;19.90;99.90
19586;DHT22;9939;49.246;9.106;2023-05-21T07:10:08;19.90;99.90
19586;DHT22;9939;49.246;9.106;2023-05-21T07:12:35;19.90;99.90
19586;DHT22;9939;49.246;9.106;2023-05-21T07:15:03;19.80;99.90
19586;DHT22;9939;49.246;9.106;2023-05-21T07:17:30;20.00;99.90
19586;DHT22;9939;49.246;9.106;2023-05-21T07:19:57;20.20;99.90
19586;DHT22;9939;49.246;9.106;2023-05-21T07:22:25;20.60;99.90
19586;DHT22;9939;49.246;9.106;2023-05-21T07:24:54;21.10;99.90
19586;DHT22;9939;49.246;9.106;2023-05-21T07:27:21;21.30;99.90
19586;DHT22;9939;49.246;9.106;2023-05-21T07:29:53;21.40;99.90
19586;DHT22;9939;49.246;9.106;2023-05-21T07:32:21;21.80;99.90
19586;DHT22;9939;49.246;9.106;2023-05-21T07:34:48;21.80;99.90
19586;DHT22;9939;49.246;9.106;2023-05-21T07:37:16;21.80;99.90
19586;DHT22;9939;49.246;9.106;2023-05-21T07:39:43;22.00;99.90
19586;DHT22;9939;49.246;9.106;2023-05-21T07:42:11;21.80;99.90
19586;DHT22;9939;49.246;9.106;2023-05-21T07:44:39;21.80;99.90
19586;DHT22;9939;49.246;9.106;2023-05-21T07:47:06;21.80;99.90
19586;DHT22;9939;49.246;9.106;2023-05-21T07:49:33;21.90;99.90
19586;DHT22;9939;49.246;9.106;2023-05-21T07:52:01;22.00;99.90
19586;DHT22;9939;49.246;9.106;2023-05-21T07:54:28;21.90;99.90
19586;DHT22;9939;49.246;9.106;2023-05-21T07:56:56;22.00;99.90
19586;DHT22;9939;49.246;9.106;2023-05-21T07:59:43;21.90;99.90
19586;DHT22;9939;49.246;9.106;2023-05-21T08:02:10;22.20;99.90
19586;DHT22;9939;49.246;9.106;2023-05-21T08:04:37;22.30;99.90
19586;DHT22;9939;49.246;9.106;2023-05-21T08:07:07;21.90;99.90
19586;DHT22;9939;49.246;9.106;2023-05-21T08:09:35;22.30;99.90
19586;DHT22;9939;49.246;9.106;2023-05-21T08:12:03;22.40;99.90
19586;DHT22;9939;49.246;9.106;2023-05-21T08:14:30;22.60;99.90
19586;DHT22;9939;49.246;9.106;2023-05-21T08:16:58;22.50;99.90
19586;DHT22;9939;49.246;9.106;2023-05-21T08:19:25;22.30;99.90
19586;DHT22;9939;49.246;9.106;2023-05-21T08:21:52;22.20;99.90
19586;DHT22;9939;49.246;9.106;2023-05-21T08:24:20;22.30;99.90
19586;DHT22;9939;49.246;9.106;2023-05-21T08:26:48;22.60;99.90
19586;DHT22;9939;49.246;9.106;2023-05-21T08:29:17;22.70;99.90
19586;DHT22;9939;49.246;9.106;2023-05-21T08:31:44;22.80;99.90
19586;DHT22;9939;49.246;9.106;2023-05-21T08:34:11;22.50;99.90
19586;DHT22;9939;49.246;9.106;2023-05-21T08:36:45;22.70;99.90
19586;DHT22;9939;49.246;9.106;2023-05-21T08:39:39;22.90;99.90
19586;DHT22;9939;49.246;9.106;2023-05-21T08:42:15;23.30;99.90
19586;DHT22;9939;49.246;9.106;2023-05-21T08:45:04;23.40;99.90
19586;DHT22;9939;49.246;9.106;2023-05-21T08:47:33;23.70;99.90
19586;DHT22;9939;49.246;9.106;2023-05-21T08:50:03;23.30;99.90
19586;DHT22;9939;49.246;9.106;2023-05-21T08:52:31;23.70;99.90
19586;DHT22;9939;49.246;9.106;2023-05-21T08:54:58;24.20;99.90
19586;DHT22;9939;49.246;9.106;2023-05-21T08:57:25;23.80;99.90
19586;DHT22;9939;49.246;9.106;2023-05-21T08:59:54;23.90;99.90
19586;DHT22;9939;49.246;9.106;2023-05-21T09:02:25;23.90;99.90
19586;DHT22;9939;49.246;9.106;2023-05-21T09:04:53;24.10;99.90
19586;DHT22;9939;49.246;9.106;2023-05-21T09:07:24;24.60;99.90
19586;DHT22;9939;49.246;9.106;2023-05-21T09:10:13;24.70;99.90
19586;DHT22;9939;49.246;9.106;2023-05-21T09:12:42;25.00;99.90
19586;DHT22;9939;49.246;9.106;2023-05-21T09:15:10;25.30;99.90
19586;DHT22;9939;49.246;9.106;2023-05-21T09:17:37;24.90;99.90
19586;DHT22;9939;49.246;9.106;2023-05-21T09:20:23;24.90;99.90
19586;DHT22;9939;49.246;9.106;2023-05-21T09:22:57;25.60;99.90
19586;DHT22;9939;49.246;9.106;2023-05-21T09:25:28;25.20;99.90
19586;DHT22;9939;49.246;9.106;2023-05-21T09:27:59;25.00;99.90
19586;DHT22;9939;49.246;9.106;2023-05-21T09:30:27;25.60;99.90
19586;DHT22;9939;49.246;9.106;2023-05-21T09:32:58;25.70;99.90
19586;DHT22;9939;49.246;9.106;2023-05-21T09:35:25;25.60;99.90
19586;DHT22;9939;49.246;9.106;2023-05-21T09:37:52;25.70;99.90
19586;DHT22;9939;49.246;9.106;2023-05-21T09:40:20;26.20;99.90
19586;DHT22;9939;49.246;9.106;2023-05-21T09:42:49;26.80;99.90
19586;DHT22;9939;49.246;9.106;2023-05-21T09:45:17;27.10;99.90
19586;DHT22;9939;49.246;9.106;2023-05-21T09:47:44;27.10;99.90
19586;DHT22;9939;49.246;9.106;2023-05-21T09:50:12;26.60;99.90
19586;DHT22;9939;49.246;9.106;2023-05-21T09:52:40;27.40;99.90
19586;DHT22;9939;49.246;9.106;2023-05-21T09:55:09;28.10;99.90
19586;DHT22;9939;49.246;9.106;2023-05-21T09:57:45;28.60;99.90
19586;DHT22;9939;49.246;9.106;2023-05-21T10:00:22;28.40;99.90
19586;DHT22;9939;49.246;9.106;2023-05-21T10:02:53;28.70;99.90
19586;DHT22;9939;49.246;9.106;2023-05-21T10:05:27;29.10;99.90
19586;DHT22;9939;49.246;9.106;2023-05-21T10:08:03;29.30;99.90
19586;DHT22;9939;49.246;9.106;2023-05-21T10:10:32;29.80;99.90
19586;DHT22;9939;49.246;9.106;2023-05-21T10:13:03;29.70;99.90
19586;DHT22;9939;49.246;9.106;2023-05-21T10:15:31;29.60;99.90
19586;DHT22;9939;49.246;9.106;2023-05-21T10:18:00;29.30;99.90
19586;DHT22;9939;49.246;9.106;2023-05-21T10:20:29;29.30;99.90
19586;DHT22;9939;49.246;9.106;2023-05-21T10:22:57;29.40;99.90
19586;DHT22;9939;49.246;9.106;2023-05-21T10:25:24;29.90;99.90
19586;DHT22;9939;49.246;9.106;2023-05-21T10:27:52;29.30;99.90
19586;DHT22;9939;49.246;9.106;2023-05-21T10:30:21;29.20;99.90
19586;DHT22;9939;49.246;9.106;2023-05-21T10:32:49;29.00;99.90
19586;DHT22;9939;49.246;9.106;2023-05-21T10:35:16;29.60;99.90
19586;DHT22;9939;49.246;9.106;2023-05-21T10:37:43;29.40;99.90
19586;DHT22;9939;49.246;9.106;2023-05-21T10:40:11;29.50;99.90
19586;DHT22;9939;49.246;9.106;2023-05-21T10:45:15;29.50;99.90
19586;DHT22;9939;49.246;9.106;2023-05-21T10:58:20;30.30;99.90
19586;DHT22;9939;49.246;9.106;2023-05-21T11:00:55;30.80;99.90
19586;DHT22;9939;49.246;9.106;2023-05-21T11:03:23;31.60;99.90
19586;DHT22;9939;49.246;9.106;2023-05-21T11:05:51;31.50;99.90
19586;DHT22;9939;49.246;9.106;2023-05-21T11:10:53;31.70;99.90
19586;DHT22;9939;49.246;9.106;2023-05-21T11:13:21;32.20;99.90
19586;DHT22;9939;49.246;9.106;2023-05-21T11:26:17;29.60;99.90
19586;DHT22;9939;49.246;9.106;2023-05-21T11:28:44;29.10;99.90
19586;DHT22;9939;49.246;9.106;2023-05-21T11:31:22;28.30;99.90
19586;DHT22;9939;49.246;9.106;2023-05-21T11:36:37;28.10;99.90
19586;DHT22;9939;49.246;9.106;2023-05-21T11:39:08;28.90;99.90
19586;DHT22;9939;49.246;9.106;2023-05-21T11:41:51;30.20;99.90
19586;DHT22;9939;49.246;9.106;2023-05-21T11:47:06;31.00;99.90
19586;DHT22;9939;49.246;9.106;2023-05-21T11:49:34;31.60;99.90
19586;DHT22;9939;49.246;9.106;2023-05-21T11:52:04;31.60;99.90
19586;DHT22;9939;49.246;9.106;2023-05-21T11:54:32;32.30;99.90
19586;DHT22;9939;49.246;9.106;2023-05-21T11:57:06;31.90;99.80
19586;DHT22;9939;49.246;9.106;2023-05-21T11:59:34;32.00;99.90
19586;DHT22;9939;49.246;9.106;2023-05-21T12:02:01;32.20;99.90
19586;DHT22;9939;49.246;9.106;2023-05-21T12:04:32;32.30;99.90
19586;DHT22;9939;49.246;9.106;2023-05-21T12:07:02;32.70;99.50
19586;DHT22;9939;49.246;9.106;2023-05-21T12:09:29;32.50;99.90
19586;DHT22;9939;49.246;9.106;2023-05-21T12:11:56;32.90;99.90
19586;DHT22;9939;49.246;9.106;2023-05-21T12:14:23;32.20;99.90
19586;DHT22;9939;49.246;9.106;2023-05-21T12:16:50;32.40;99.30
19586;DHT22;9939;49.246;9.106;2023-05-21T12:19:17;33.30;97.60
19586;DHT22;9939;49.246;9.106;2023-05-21T12:21:45;33.40;97.20
19586;DHT22;9939;49.246;9.106;2023-05-21T12:24:12;33.30;98.60
19586;DHT22;9939;49.246;9.106;2023-05-21T12:26:38;33.10;99.90
19586;DHT22;9939;49.246;9.106;2023-05-21T12:29:07;33.40;99.10
19586;DHT22;9939;49.246;9.106;2023-05-21T12:31:45;33.30;99.40
19586;DHT22;9939;49.246;9.106;2023-05-21T12:34:12;33.00;96.20
19586;DHT22;9939;49.246;9.106;2023-05-21T12:36:41;32.90;96.60
19586;DHT22;9939;49.246;9.106;2023-05-21T12:39:11;33.40;96.80
19586;DHT22;9939;49.246;9.106;2023-05-21T12:41:38;33.40;97.00
19586;DHT22;9939;49.246;9.106;2023-05-21T12:44:06;34.10;95.70
19586;DHT22;9939;49.246;9.106;2023-05-21T12:46:34;33.30;96.60
19586;DHT22;9939;49.246;9.106;2023-05-21T12:49:02;32.90;96.40
19586;DHT22;9939;49.246;9.106;2023-05-21T12:51:36;33.30;95.90
19586;DHT22;9939;49.246;9.106;2023-05-21T12:54:10;34.10;95.00
19586;DHT22;9939;49.246;9.106;2023-05-21T12:56:43;34.00;95.50
19586;DHT22;9939;49.246;9.106;2023-05-21T12:59:11;33.90;94.40
19586;DHT22;9939;49.246;9.106;2023-05-21T13:01:39;33.80;93.40
19586;DHT22;9939;49.246;9.106;2023-05-21T13:04:06;34.00;93.30
19586;DHT22;9939;49.246;9.106;2023-05-21T13:06:40;34.20;93.30
19586;DHT22;9939;49.246;9.106;2023-05-21T13:09:07;34.30;92.90
19586;DHT22;9939;49.246;9.106;2023-05-21T13:11:34;34.30;92.30
19586;DHT22;9939;49.246;9.106;2023-05-21T13:14:01;33.30;91.60
19586;DHT22;9939;49.246;9.106;2023-05-21T13:16:29;32.80;93.30
19586;DHT22;9939;49.246;9.106;2023-05-21T13:18:56;33.40;92.90
19586;DHT22;9939;49.246;9.106;2023-05-21T13:21:23;33.20;93.00
19586;DHT22;9939;49.246;9.106;2023-05-21T13:23:50;33.50;93.30
19586;DHT22;9939;49.246;9.106;2023-05-21T13:26:17;33.90;92.10
19586;DHT22;9939;49.246;9.106;2023-05-21T13:28:44;34.20;91.30
19586;DHT22;9939;49.246;9.106;2023-05-21T13:31:11;34.00;90.70
19586;DHT22;9939;49.246;9.106;2023-05-21T13:33:39;33.50;90.70
19586;DHT22;9939;49.246;9.106;2023-05-21T13:36:06;34.90;88.50
19586;DHT22;9939;49.246;9.106;2023-05-21T13:38:33;36.10;85.50
19586;DHT22;9939;49.246;9.106;2023-05-21T13:41:00;35.90;86.20
19586;DHT22;9939;49.246;9.106;2023-05-21T13:43:27;36.00;87.80
19586;DHT22;9939;49.246;9.106;2023-05-21T13:45:54;36.60;85.30
19586;DHT22;9939;49.246;9.106;2023-05-21T13:48:21;36.80;84.80
19586;DHT22;9939;49.246;9.106;2023-05-21T13:50:48;35.60;84.20
19586;DHT22;9939;49.246;9.106;2023-05-21T13:53:15;35.00;85.90
19586;DHT22;9939;49.246;9.106;2023-05-21T13:55:42;35.40;90.10
19586;DHT22;9939;49.246;9.106;2023-05-21T13:58:09;35.80;85.60
19586;DHT22;9939;49.246;9.106;2023-05-21T14:00:36;35.00;85.40
19586;DHT22;9939;49.246;9.106;2023-05-21T14:03:04;35.20;85.40
19586;DHT22;9939;49.246;9.106;2023-05-21T14:05:33;34.90;85.60
19586;DHT22;9939;49.246;9.106;2023-05-21T14:08:00;34.80;85.40
19586;DHT22;9939;49.246;9.106;2023-05-21T14:10:27;35.60;85.50
19586;DHT22;9939;49.246;9.106;2023-05-21T14:12:54;35.90;86.60
19586;DHT22;9939;49.246;9.106;2023-05-21T14:15:37;35.60;86.70
19586;DHT22;9939;49.246;9.106;2023-05-21T14:18:04;35.70;85.80
19586;DHT22;9939;49.246;9.106;2023-05-21T14:20:33;36.00;86.90
19586;DHT22;9939;49.246;9.106;2023-05-21T14:23:00;36.10;86.80
19586;DHT22;9939;49.246;9.106;2023-05-21T14:25:28;36.00;85.70
19586;DHT22;9939;49.246;9.106;2023-05-21T14:27:55;35.70;88.10
19586;DHT22;9939;49.246;9.106;2023-05-21T14:30:22;35.50;88.50
19586;DHT22;9939;49.246;9.106;2023-05-21T14:32:49;35.30;90.10
19586;DHT22;9939;49.246;9.106;2023-05-21T14:35:16;35.10;89.60
19586;DHT22;9939;49.246;9.106;2023-05-21T14:37:43;35.20;89.30
19586;DHT22;9939;49.246;9.106;2023-05-21T14:40:10;35.00;88.50
19586;DHT22;9939;49.246;9.106;2023-05-21T14:42:37;33.80;90.30
19586;DHT22;9939;49.246;9.106;2023-05-21T14:45:04;33.40;91.50
19586;DHT22;9939;49.246;9.106;2023-05-21T14:47:44;33.60;91.60
19586;DHT22;9939;49.246;9.106;2023-05-21T14:50:13;33.10;90.80
19586;DHT22;9939;49.246;9.106;2023-05-21T14:52:41;33.10;90.30
19586;DHT22;9939;49.246;9.106;2023-05-21T14:55:10;33.20;89.90
19586;DHT22;9939;49.246;9.106;2023-05-21T14:57:38;32.80;89.10
19586;DHT22;9939;49.246;9.106;2023-05-21T15:00:05;32.30;90.00
19586;DHT22;9939;49.246;9.106;2023-05-21T15:02:32;31.60;91.50
19586;DHT22;9939;49.246;9.106;2023-05-21T15:05:00;31.30;91.50
19586;DHT22;9939;49.246;9.106;2023-05-21T15:07:27;31.50;92.10
19586;DHT22;9939;49.246;9.106;2023-05-21T15:09:54;31.40;91.40
19586;DHT22;9939;49.246;9.106;2023-05-21T15:12:21;30.50;91.50
19586;DHT22;9939;49.246;9.106;2023-05-21T15:14:48;29.90;92.80
19586;DHT22;9939;49.246;9.106;2023-05-21T15:17:15;30.10;92.60
19586;DHT22;9939;49.246;9.106;2023-05-21T15:19:42;29.90;93.50
19586;DHT22;9939;49.246;9.106;2023-05-21T15:22:09;29.80;93.30
19586;DHT22;9939;49.246;9.106;2023-05-21T15:24:36;29.80;93.50
19586;DHT22;9939;49.246;9.106;2023-05-21T15:27:03;29.90;93.50
19586;DHT22;9939;49.246;9.106;2023-05-21T15:29:30;29.20;95.30
19586;DHT22;9939;49.246;9.106;2023-05-21T15:31:57;29.30;95.70
19586;DHT22;9939;49.246;9.106;2023-05-21T15:34:25;29.20;95.90
19586;DHT22;9939;49.246;9.106;2023-05-21T15:36:52;28.90;95.70
19586;DHT22;9939;49.246;9.106;2023-05-21T15:39:19;28.90;96.20
19586;DHT22;9939;49.246;9.106;2023-05-21T15:41:46;28.70;96.30
19586;DHT22;9939;49.246;9.106;2023-05-21T15:44:13;28.50;97.00
19586;DHT22;9939;49.246;9.106;2023-05-21T15:46:41;28.30;97.60
19586;DHT22;9939;49.246;9.106;2023-05-21T15:49:08;28.30;97.60
19586;DHT22;9939;49.246;9.106;2023-05-21T15:51:35;27.90;98.30
19586;DHT22;9939;49.246;9.106;2023-05-21T15:54:02;27.90;98.30
19586;DHT22;9939;49.246;9.106;2023-05-21T15:56:29;27.80;98.40
19586;DHT22;9939;49.246;9.106;2023-05-21T15:58:56;27.60;99.30
19586;DHT22;9939;49.246;9.106;2023-05-21T16:01:26;27.40;99.40
19586;DHT22;9939;49.246;9.106;2023-05-21T16:03:54;27.30;99.40
19586;DHT22;9939;49.246;9.106;2023-05-21T16:06:21;27.30;99.90
19586;DHT22;9939;49.246;9.106;2023-05-21T16:08:48;27.20;99.90
19586;DHT22;9939;49.246;9.106;2023-05-21T16:11:15;27.40;99.90
19586;DHT22;9939;49.246;9.106;2023-05-21T16:13:42;27.20;99.90
19586;DHT22;9939;49.246;9.106;2023-05-21T16:16:09;27.10;99.90
19586;DHT22;9939;49.246;9.106;2023-05-21T16:18:36;27.20;99.90
19586;DHT22;9939;49.246;9.106;2023-05-21T16:21:03;27.20;99.90
19586;DHT22;9939;49.246;9.106;2023-05-21T16:23:30;27.10;99.90
19586;DHT22;9939;49.246;9.106;2023-05-21T16:25:59;27.30;99.90
19586;DHT22;9939;49.246;9.106;2023-05-21T16:28:26;27.40;99.90